Time;durP1;ratioP1;P1;durP2;ratioP2;P2;SDS_P1;SDS_P2;PMS_P1;PMS_P2;Temp;Humidity;BMP_temperature;BMP_pressure;BME280_temperature;BME280_humidity;BME280_pressure;Samples;Min_cycle;Max_cycle;Signal;HPM_P1;HPM_P2
2023/10/17 00:02:22;;;;;;;9.38;5.82;;;4.20;99.90;;;;;;5040946;28;20045;-63
2023/10/17 00:04:54;;;;;;;6.80;5.18;;;4.10;99.90;;;;;;5046107;28;20056;-63
2023/10/17 00:07:20;;;;;;;6.13;5.25;;;4.20;99.90;;;;;;5041748;28;20131;-63
2023/10/17 00:09:54;;;;;;;9.70;5.80;;;4.10;99.90;;;;;;5042880;28;20056;-63
2023/10/17 00:12:36;;;;;;;8.23;5.25;;;4.10;99.90;;;;;;5046475;28;20041;-63
2023/10/17 00:15:45;;;;;;;12.30;6.05;;;4.10;99.90;;;;;;5033172;28;20046;-63
2023/10/17 00:18:15;;;;;;;8.70;5.60;;;4.10;99.90;;;;;;5033706;28;20037;-63
2023/10/17 00:20:50;;;;;;;9.60;5.32;;;4.10;99.90;;;;;;5039341;28;20046;-63
2023/10/17 00:23:22;;;;;;;9.82;6.43;;;4.00;99.90;;;;;;5041888;28;20041;-63
2023/10/17 00:25:49;;;;;;;8.20;5.82;;;4.00;99.90;;;;;;5040578;28;20029;-63
2023/10/17 00:28:22;;;;;;;8.15;5.18;;;4.00;99.90;;;;;;5042653;28;20041;-63
2023/10/17 00:30:54;;;;;;;10.50;5.43;;;4.00;99.90;;;;;;5039559;28;20501;-63
2023/10/17 00:33:25;;;;;;;8.05;5.32;;;4.00;99.90;;;;;;5041986;28;20040;-63
2023/10/17 00:35:54;;;;;;;10.20;5.53;;;4.00;99.90;;;;;;5044969;28;20045;-63
2023/10/17 00:38:29;;;;;;;;;;;4.00;99.90;;;;;;5040439;28;20041;-63
2023/10/17 00:41:04;;;;;;;7.63;5.18;;;3.90;99.90;;;;;;5051706;28;20000;-63
2023/10/17 00:43:37;;;;;;;11.45;5.68;;;3.90;99.90;;;;;;5034571;28;20053;-63
2023/10/17 00:46:09;;;;;;;9.82;6.00;;;3.90;99.90;;;;;;5033808;28;20049;-63
2023/10/17 00:48:42;;;;;;;8.35;6.03;;;3.80;99.90;;;;;;5033884;28;20136;-63
2023/10/17 00:51:19;;;;;;;8.52;5.78;;;3.80;99.90;;;;;;5041470;28;20037;-63
2023/10/17 00:53:51;;;;;;;8.65;5.75;;;3.80;99.90;;;;;;5035452;28;20471;-63
2023/10/17 00:56:26;;;;;;;7.55;4.93;;;3.70;99.90;;;;;;5044657;28;20396;-63
2023/10/17 00:59:00;;;;;;;7.95;5.90;;;3.70;99.90;;;;;;5058628;28;20512;-63
2023/10/17 01:01:32;;;;;;;7.68;5.45;;;3.70;99.90;;;;;;5039488;28;20042;-63
2023/10/17 01:04:04;;;;;;;7.20;5.03;;;3.60;99.90;;;;;;5059337;28;20428;-63
2023/10/17 01:06:37;;;;;;;7.97;5.78;;;3.60;99.90;;;;;;5040780;28;20839;-63
2023/10/17 01:09:17;;;;;;;7.03;5.60;;;3.60;99.90;;;;;;5037820;28;20045;-63
2023/10/17 01:11:54;;;;;;;6.97;4.97;;;3.60;99.90;;;;;;5057825;28;20110;-63
2023/10/17 01:14:27;;;;;;;8.45;5.85;;;3.50;99.90;;;;;;5035386;28;20057;-63
2023/10/17 01:16:58;;;;;;;7.15;5.45;;;3.50;99.90;;;;;;5028848;28;20039;-63
2023/10/17 01:19:33;;;;;;;8.18;5.70;;;3.50;99.90;;;;;;5035139;28;20508;-63
2023/10/17 01:22:04;;;;;;;6.82;5.50;;;3.50;99.90;;;;;;5021337;28;20045;-63
2023/10/17 01:24:36;;;;;;;6.38;5.05;;;3.40;99.90;;;;;;5043587;28;20069;-63
2023/10/17 01:27:06;;;;;;;7.38;5.60;;;3.40;99.90;;;;;;5046388;28;20393;-63
2023/10/17 01:29:38;;;;;;;7.80;5.75;;;3.30;99.90;;;;;;5042500;28;20443;-64
2023/10/17 01:32:11;;;;;;;8.25;5.30;;;3.30;99.90;;;;;;5043850;28;20055;-63
2023/10/17 01:34:43;;;;;;;7.13;5.25;;;3.20;99.90;;;;;;5046521;28;20052;-63
2023/10/17 01:37:15;;;;;;;8.30;4.95;;;3.20;99.90;;;;;;5048219;28;20080;-63
2023/10/17 01:39:47;;;;;;;7.18;5.07;;;3.20;99.90;;;;;;5042040;28;20424;-63
2023/10/17 01:42:16;;;;;;;6.57;4.95;;;3.20;99.90;;;;;;5047392;28;20684;-63
2023/10/17 01:44:47;;;;;;;6.82;5.40;;;3.20;99.90;;;;;;5036701;28;20041;-63
2023/10/17 01:47:22;;;;;;;7.93;5.43;;;3.20;99.90;;;;;;5056336;28;20044;-63
2023/10/17 01:49:55;;;;;;;12.30;5.68;;;3.20;99.90;;;;;;5036335;28;20092;-63
2023/10/17 01:52:27;;;;;;;8.95;5.70;;;3.10;99.90;;;;;;5033998;28;20041;-63
2023/10/17 01:54:59;;;;;;;8.90;6.07;;;3.10;99.90;;;;;;5039651;28;20128;-63
2023/10/17 01:57:33;;;;;;;8.20;5.72;;;3.10;99.90;;;;;;5029697;28;20033;-63
2023/10/17 02:00:18;;;;;;;7.65;5.43;;;3.10;99.90;;;;;;5033481;28;20517;-63
2023/10/17 02:02:55;;;;;;;8.45;5.82;;;3.00;99.90;;;;;;5041489;28;20042;-64
2023/10/17 02:05:27;;;;;;;8.32;5.68;;;3.00;99.90;;;;;;5042698;28;20535;-63
2023/10/17 02:07:59;;;;;;;10.30;5.50;;;3.00;99.90;;;;;;5045003;28;20051;-63
2023/10/17 02:10:31;;;;;;;8.73;5.57;;;3.00;99.90;;;;;;5049910;28;20048;-63
2023/10/17 02:12:59;;;;;;;10.93;6.03;;;2.90;99.90;;;;;;5045585;28;20156;-63
2023/10/17 02:15:31;;;;;;;10.48;5.18;;;2.90;99.90;;;;;;5037979;28;20049;-63
2023/10/17 02:18:12;;;;;;;8.07;5.55;;;2.90;99.90;;;;;;5033507;28;20128;-63
2023/10/17 02:20:53;;;;;;;7.35;6.40;;;2.80;99.90;;;;;;5045340;28;20139;-63
2023/10/17 02:23:27;;;;;;;8.65;5.50;;;2.80;99.90;;;;;;5042722;28;20038;-63
2023/10/17 02:26:00;;;;;;;7.32;5.18;;;2.80;99.90;;;;;;5045124;28;20103;-63
2023/10/17 02:28:27;;;;;;;7.93;5.28;;;2.80;99.90;;;;;;5040785;28;20041;-64
2023/10/17 02:30:58;;;;;;;8.25;5.28;;;2.80;99.90;;;;;;5046198;28;20065;-63
2023/10/17 02:33:31;;;;;;;8.13;5.10;;;2.70;99.90;;;;;;5038132;28;20501;-63
2023/10/17 02:36:08;;;;;;;7.90;5.50;;;2.70;99.90;;;;;;5042238;28;20048;-63
2023/10/17 02:38:36;;;;;;;9.23;5.55;;;2.70;99.90;;;;;;5047083;28;20407;-63
2023/10/17 02:41:13;;;;;;;6.32;4.20;;;2.70;99.90;;;;;;5049344;28;20131;-63
2023/10/17 02:43:46;;;;;;;7.72;5.00;;;2.60;99.90;;;;;;5048373;28;20586;-63
2023/10/17 02:46:20;;;;;;;8.48;5.25;;;2.60;99.90;;;;;;5040524;28;20083;-63
2023/10/17 02:48:55;;;;;;;8.10;5.37;;;2.50;99.90;;;;;;5035761;28;20049;-63
2023/10/17 02:51:33;;;;;;;8.10;5.53;;;2.40;99.90;;;;;;5044712;28;20042;-63
2023/10/17 02:54:05;;;;;;;7.53;5.45;;;2.40;99.90;;;;;;5048864;28;20552;-63
2023/10/17 02:56:38;;;;;;;7.90;6.05;;;2.40;99.90;;;;;;5039255;28;20579;-63
2023/10/17 02:59:10;;;;;;;8.10;6.28;;;2.40;99.90;;;;;;5044938;28;20065;-63
2023/10/17 03:01:40;;;;;;;7.88;5.47;;;2.40;99.90;;;;;;5046685;28;20091;-63
2023/10/17 03:04:11;;;;;;;9.27;5.60;;;2.40;99.90;;;;;;5045561;28;20053;-63
2023/10/17 03:06:48;;;;;;;7.68;5.65;;;2.40;99.90;;;;;;5025149;28;20042;-63
2023/10/17 03:14:49;;;;;;;8.83;6.40;;;2.30;99.90;;;;;;5042059;28;20444;-63
2023/10/17 03:17:17;;;;;;;10.15;6.68;;;2.30;99.90;;;;;;5060467;28;20437;-63
2023/10/17 03:19:49;;;;;;;11.40;6.28;;;2.30;99.90;;;;;;5045192;28;20049;-63
2023/10/17 03:22:27;;;;;;;10.68;6.32;;;2.30;99.90;;;;;;5041163;28;20060;-63
2023/10/17 03:25:01;;;;;;;9.35;6.07;;;2.20;99.90;;;;;;5043771;28;20049;-63
2023/10/17 03:27:48;;;;;;;15.77;6.63;;;2.20;99.90;;;;;;5037716;28;20040;-63
2023/10/17 03:30:21;;;;;;;13.07;6.53;;;2.20;99.90;;;;;;5044040;28;20061;-63
2023/10/17 03:35:35;;;;;;;11.15;6.07;;;2.20;99.90;;;;;;5058765;28;20037;-64
2023/10/17 03:38:03;;;;;;;9.73;6.00;;;2.20;99.90;;;;;;5042308;28;20504;-63
2023/10/17 03:40:35;;;;;;;12.50;6.00;;;2.20;99.90;;;;;;5047327;28;20515;-63
2023/10/17 03:43:14;;;;;;;9.80;6.25;;;2.20;99.90;;;;;;5043966;28;20037;-63
2023/10/17 03:45:52;;;;;;;10.80;6.97;;;2.20;99.90;;;;;;5041464;28;20041;-63
2023/10/17 03:48:36;;;;;;;13.95;7.18;;;2.20;99.90;;;;;;5035650;28;20092;-63
2023/10/17 03:53:46;;;;;;;12.55;6.28;;;2.20;99.90;;;;;;5034763;28;20405;-63
2023/10/17 03:56:23;;;;;;;12.43;6.32;;;2.20;99.90;;;;;;5033409;28;20044;-63
2023/10/17 03:59:16;;;;;;;10.52;5.97;;;2.20;99.90;;;;;;5036107;28;20055;-63
2023/10/17 04:01:47;;;;;;;8.57;6.03;;;2.20;99.90;;;;;;5044427;28;20296;-63
2023/10/17 04:04:35;;;;;;;8.32;5.95;;;2.20;99.90;;;;;;5042409;28;20037;-63
2023/10/17 04:07:08;;;;;;;10.50;6.40;;;2.20;99.90;;;;;;5044044;28;20049;-64
2023/10/17 04:13:13;;;;;;;8.77;5.75;;;2.20;99.90;;;;;;5043266;28;20040;-62
2023/10/17 04:15:21;;;;;;;9.13;5.70;;;2.20;99.90;;;;;;5042226;28;20037;-64
2023/10/17 04:17:58;;;;;;;10.32;5.88;;;2.20;99.90;;;;;;5046759;28;20072;-63
2023/10/17 04:20:36;;;;;;;8.30;6.07;;;2.20;99.90;;;;;;5038738;28;20048;-65
2023/10/17 04:23:21;;;;;;;20.52;7.47;;;2.20;99.90;;;;;;5035084;28;20550;-64
2023/10/17 04:25:55;;;;;;;10.50;7.10;;;2.10;99.90;;;;;;5042319;28;20141;-64
2023/10/17 04:28:26;;;;;;;8.57;5.93;;;2.10;99.90;;;;;;5057067;28;20048;-64
2023/10/17 04:30:59;;;;;;;9.05;6.57;;;2.10;99.90;;;;;;5045761;28;20132;-63
2023/10/17 04:33:31;;;;;;;9.27;6.03;;;2.00;99.90;;;;;;5044206;28;20064;-64
2023/10/17 04:36:06;;;;;;;8.98;6.38;;;2.00;99.90;;;;;;5059833;28;20048;-64
2023/10/17 04:44:04;;;;;;;10.10;6.32;;;2.00;99.90;;;;;;5042509;28;20048;-64
2023/10/17 04:46:49;;;;;;;9.45;5.97;;;2.00;99.90;;;;;;5040787;28;20092;-64
2023/10/17 04:49:24;;;;;;;11.18;6.80;;;2.00;99.90;;;;;;5039313;28;20045;-63
2023/10/17 04:52:06;;;;;;;10.43;6.22;;;2.00;99.90;;;;;;5040426;28;20037;-64
2023/10/17 04:57:16;;;;;;;11.05;6.25;;;2.00;99.90;;;;;;5035930;28;20048;-64
2023/10/17 05:07:34;;;;;;;14.32;6.55;;;2.10;99.90;;;;;;5045189;28;20408;-64
2023/10/17 06:18:07;;;;;;;11.65;6.80;;;1.80;99.90;;;;;;5038202;28;20045;-63
2023/10/17 06:26:46;;;;;;;12.18;8.70;;;1.80;99.90;;;;;;5039978;28;20048;-63
2023/10/17 06:34:45;;;;;;;11.32;7.68;;;2.10;99.90;;;;;;5039929;28;20099;-64
2023/10/17 06:37:28;;;;;;;18.30;9.50;;;2.10;99.90;;;;;;5040659;28;20128;-64
2023/10/17 06:40:00;;;;;;;20.48;11.25;;;2.20;99.90;;;;;;5037784;28;20041;-64
2023/10/17 06:42:38;;;;;;;16.15;9.88;;;2.20;99.90;;;;;;5040160;28;20065;-64
2023/10/17 06:45:11;;;;;;;15.25;9.48;;;2.20;99.90;;;;;;5040809;28;20053;-64
2023/10/17 06:47:47;;;;;;;16.52;10.48;;;2.30;99.90;;;;;;5039710;28;20047;-64
2023/10/17 06:51:29;;;;;;;21.15;10.27;;;2.30;99.90;;;;;;5047204;28;20041;-64
2023/10/17 06:53:11;;;;;;;20.33;10.65;;;2.30;99.90;;;;;;5042168;28;20079;-64
2023/10/17 06:55:43;;;;;;;21.73;11.20;;;2.30;99.90;;;;;;5040729;28;20048;-65
2023/10/17 06:58:15;;;;;;;20.20;9.98;;;2.40;99.90;;;;;;5040154;28;20046;-64
2023/10/17 07:00:50;;;;;;;19.00;10.93;;;2.50;99.90;;;;;;5041177;28;20131;-64
2023/10/17 07:03:37;;;;;;;26.98;11.65;;;2.60;99.90;;;;;;5030895;28;20046;-64
2023/10/17 07:06:16;;;;;;;27.45;14.80;;;2.60;99.90;;;;;;5038918;28;20045;-64
2023/10/17 07:08:50;;;;;;;25.88;13.90;;;2.80;99.90;;;;;;5045572;28;20547;-64
2023/10/17 07:14:21;;;;;;;24.30;14.70;;;2.90;99.90;;;;;;5041454;28;20037;-64
2023/10/17 07:16:57;;;;;;;24.95;14.27;;;3.00;99.90;;;;;;5042727;28;20051;-64
2023/10/17 07:22:05;;;;;;;22.35;14.65;;;3.20;99.90;;;;;;5041189;28;20036;-64
2023/10/17 07:24:42;;;;;;;23.08;14.50;;;3.20;99.90;;;;;;5044196;28;20051;-64
2023/10/17 07:27:27;;;;;;;27.08;15.52;;;3.40;99.90;;;;;;5041288;28;20102;-64
2023/10/17 07:30:01;;;;;;;25.42;15.27;;;3.40;99.90;;;;;;5050553;28;20076;-64
2023/10/17 07:32:44;;;;;;;27.00;15.55;;;3.50;99.90;;;;;;5046478;28;20624;-64
2023/10/17 07:35:23;;;;;;;24.20;14.65;;;3.50;99.90;;;;;;5043523;28;20052;-64
2023/10/17 07:37:55;;;;;;;24.75;14.50;;;3.60;99.90;;;;;;5042164;28;20047;-64
2023/10/17 07:41:12;;;;;;;23.02;14.95;;;3.60;99.90;;;;;;5044748;28;20045;-64
2023/10/17 07:43:30;;;;;;;25.92;14.23;;;3.60;99.90;;;;;;5039030;28;20088;-64
2023/10/17 07:46:15;;;;;;;22.48;13.63;;;3.70;99.90;;;;;;5044906;28;20049;-64
2023/10/17 07:48:50;;;;;;;21.55;11.70;;;3.80;99.90;;;;;;5042155;28;20041;-64
2023/10/17 07:51:22;;;;;;;18.08;10.85;;;3.70;99.90;;;;;;5039668;28;20123;-64
2023/10/17 07:53:49;;;;;;;20.27;11.90;;;3.70;99.90;;;;;;5038204;28;20025;-64
2023/10/17 07:56:23;;;;;;;18.40;12.48;;;3.70;99.90;;;;;;5040441;28;20037;-65
2023/10/17 07:59:16;;;;;;;20.88;12.32;;;3.70;99.90;;;;;;5046538;28;20524;-64
2023/10/17 08:01:50;;;;;;;21.58;13.50;;;3.70;99.90;;;;;;5033431;28;20049;-64
2023/10/17 08:06:50;;;;;;;24.13;14.02;;;3.70;99.90;;;;;;5037891;28;20043;-64
2023/10/17 08:09:24;;;;;;;25.17;13.25;;;3.80;99.90;;;;;;5041274;28;20041;-64
2023/10/17 08:11:59;;;;;;;22.88;14.20;;;3.80;99.90;;;;;;5041665;28;20045;-64
2023/10/17 08:14:31;;;;;;;23.05;14.15;;;3.90;99.90;;;;;;5038961;28;20614;-64
2023/10/17 08:17:05;;;;;;;21.10;14.73;;;3.90;99.90;;;;;;5041755;28;20102;-64
2023/10/17 08:22:41;;;;;;;24.65;14.10;;;4.10;99.90;;;;;;5043354;28;20139;-64
2023/10/17 08:25:20;;;;;;;22.27;14.45;;;4.20;99.90;;;;;;5044565;28;20051;-64
2023/10/17 08:27:54;;;;;;;21.77;13.30;;;4.30;99.90;;;;;;5043337;28;20417;-65
2023/10/17 08:30:34;;;;;;;24.92;15.27;;;4.40;99.90;;;;;;5037789;28;20517;-64
2023/10/17 08:35:37;;;;;;;22.90;13.85;;;4.50;99.90;;;;;;5035551;28;20444;-64
2023/10/17 08:38:10;;;;;;;25.52;14.90;;;4.60;99.90;;;;;;5041350;28;20139;-64
2023/10/17 08:43:11;;;;;;;23.08;14.88;;;4.60;99.90;;;;;;5042544;28;20385;-64
2023/10/17 08:45:47;;;;;;;24.33;15.93;;;4.70;99.90;;;;;;5037921;28;20592;-64
2023/10/17 08:48:19;;;;;;;26.73;14.65;;;4.80;99.90;;;;;;5036851;28;20045;-64
2023/10/17 08:50:46;;;;;;;23.63;14.80;;;4.80;99.90;;;;;;5039505;28;20552;-64
2023/10/17 08:55:51;;;;;;;24.30;14.85;;;4.90;99.90;;;;;;5037418;28;20056;-64
2023/10/17 08:58:24;;;;;;;24.02;14.40;;;4.90;99.90;;;;;;5041550;28;20036;-64
2023/10/17 09:00:57;;;;;;;22.75;14.43;;;5.00;99.90;;;;;;5044104;28;20050;-64
2023/10/17 09:03:31;;;;;;;24.45;15.90;;;5.00;99.90;;;;;;5041283;28;20056;-64
2023/10/17 09:06:28;;;;;;;27.77;16.85;;;5.10;99.90;;;;;;5029723;28;20045;-64
2023/10/17 09:08:58;;;;;;;27.77;16.88;;;5.10;99.90;;;;;;5031278;28;20118;-64
2023/10/17 09:11:30;;;;;;;22.77;13.77;;;5.20;99.90;;;;;;5035967;28;20056;-64
2023/10/17 09:16:51;;;;;;;21.45;14.10;;;5.30;99.90;;;;;;5041833;28;20049;-64
2023/10/17 09:19:25;;;;;;;23.92;13.63;;;5.30;99.90;;;;;;5041295;28;20052;-65
2023/10/17 09:21:59;;;;;;;20.25;13.07;;;5.40;99.90;;;;;;5038372;28;20052;-65
2023/10/17 09:24:32;;;;;;;20.30;13.45;;;5.50;99.90;;;;;;5037724;28;20029;-65
2023/10/17 09:27:13;;;;;;;19.45;12.90;;;5.60;99.90;;;;;;5041987;28;20519;-64
2023/10/17 09:29:55;;;;;;;20.27;13.57;;;5.70;99.90;;;;;;5038445;28;20457;-64
2023/10/17 09:32:40;;;;;;;20.02;13.30;;;5.80;99.90;;;;;;5037826;28;20132;-64
2023/10/17 09:35:14;;;;;;;21.02;15.05;;;5.80;99.90;;;;;;5034884;28;20087;-64
2023/10/17 09:37:43;;;;;;;22.60;14.10;;;5.90;99.90;;;;;;5041653;28;20052;-64
2023/10/17 09:40:22;;;;;;;29.75;15.57;;;5.90;99.90;;;;;;5036374;28;20157;-64
2023/10/17 09:42:54;;;;;;;23.23;14.68;;;5.90;99.90;;;;;;5037083;28;20517;-64
2023/10/17 09:45:21;;;;;;;23.52;13.95;;;5.90;99.90;;;;;;5040467;28;20119;-64
2023/10/17 09:47:54;;;;;;;21.17;13.63;;;5.90;99.90;;;;;;5044345;28;20044;-64
2023/10/17 09:50:28;;;;;;;21.65;14.60;;;6.00;99.90;;;;;;5042940;28;20052;-64
2023/10/17 09:53:13;;;;;;;22.73;14.43;;;6.10;99.90;;;;;;5045246;28;20037;-64
2023/10/17 09:55:50;;;;;;;23.10;14.50;;;6.20;99.90;;;;;;5042654;28;20537;-64
2023/10/17 09:58:28;;;;;;;20.88;13.80;;;6.20;99.90;;;;;;5046834;28;20128;-64
2023/10/17 10:01:05;;;;;;;25.00;15.93;;;6.20;99.90;;;;;;5042764;28;20644;-64
2023/10/17 10:03:40;;;;;;;23.35;14.80;;;6.20;99.90;;;;;;5040992;28;20049;-64
2023/10/17 10:06:26;;;;;;;20.60;13.82;;;6.20;99.90;;;;;;5043342;28;20417;-64
2023/10/17 10:09:13;;;;;;;20.25;13.63;;;6.20;99.90;;;;;;5035022;28;20539;-64
2023/10/17 10:11:49;;;;;;;20.27;13.23;;;6.20;99.90;;;;;;5038596;28;20116;-64
2023/10/17 10:14:33;;;;;;;21.02;14.25;;;6.20;99.90;;;;;;5041412;28;20051;-64
2023/10/17 10:17:05;;;;;;;25.58;15.57;;;6.30;99.90;;;;;;5044686;28;20048;-64
2023/10/17 10:19:40;;;;;;;24.88;15.23;;;6.30;99.90;;;;;;5038912;28;20041;-64
2023/10/17 10:22:08;;;;;;;19.90;13.15;;;6.40;99.90;;;;;;5039448;28;20043;-64
2023/10/17 10:24:41;;;;;;;19.25;13.43;;;6.40;99.90;;;;;;5039866;28;20045;-64
2023/10/17 10:27:24;;;;;;;21.50;13.77;;;6.40;99.90;;;;;;5041096;28;20148;-64
2023/10/17 10:30:32;;;;;;;23.40;14.10;;;6.50;99.90;;;;;;5045936;28;20404;-65
2023/10/17 10:33:04;;;;;;;23.17;14.63;;;6.50;99.90;;;;;;5041013;28;20037;-64
2023/10/17 10:35:36;;;;;;;20.25;13.60;;;6.50;99.90;;;;;;5036651;28;20501;-64
2023/10/17 10:38:08;;;;;;;20.63;13.57;;;6.50;99.90;;;;;;5041889;28;20651;-64
2023/10/17 10:40:40;;;;;;;22.58;13.82;;;6.50;99.90;;;;;;5046430;28;20055;-64
2023/10/17 10:43:18;;;;;;;20.08;14.15;;;6.40;99.90;;;;;;5042915;28;20037;-65
2023/10/17 10:45:50;;;;;;;21.90;14.40;;;6.30;99.90;;;;;;5047043;28;20037;-64
2023/10/17 10:48:22;;;;;;;23.00;15.35;;;6.40;99.90;;;;;;5040496;28;20192;-64
2023/10/17 10:50:55;;;;;;;19.17;12.90;;;6.30;99.90;;;;;;5046102;28;20040;-64
2023/10/17 10:53:32;;;;;;;20.02;14.18;;;6.40;99.90;;;;;;5040361;28;20069;-64
2023/10/17 10:56:13;;;;;;;22.33;14.80;;;6.40;99.90;;;;;;5043462;28;20037;-64
2023/10/17 10:58:51;;;;;;;34.90;22.15;;;6.40;99.90;;;;;;5027388;28;20041;-64
2023/10/17 11:01:25;;;;;;;34.70;23.65;;;6.50;99.90;;;;;;5041676;28;20037;-64
2023/10/17 11:03:58;;;;;;;26.85;18.55;;;6.50;99.90;;;;;;5039208;28;20413;-64
2023/10/17 11:06:29;;;;;;;28.33;20.48;;;6.50;99.90;;;;;;5042348;28;20033;-64
2023/10/17 11:09:01;;;;;;;28.33;18.90;;;6.60;99.90;;;;;;5037718;28;20463;-64
2023/10/17 11:11:30;;;;;;;22.42;15.93;;;6.60;99.90;;;;;;5039615;28;20570;-64
2023/10/17 11:14:02;;;;;;;21.00;14.32;;;6.70;99.90;;;;;;5044856;28;20041;-64
2023/10/17 11:16:33;;;;;;;22.08;15.98;;;6.70;99.90;;;;;;5040237;28;20064;-64
2023/10/17 11:19:14;;;;;;;22.92;15.93;;;6.80;99.90;;;;;;5041193;28;20039;-64
2023/10/17 11:21:55;;;;;;;22.60;13.65;;;6.70;99.90;;;;;;5056210;28;20059;-64
2023/10/17 11:24:23;;;;;;;18.90;12.73;;;6.80;99.90;;;;;;5041420;28;20068;-64
2023/10/17 11:26:55;;;;;;;20.13;14.27;;;6.80;99.90;;;;;;5042549;28;20108;-64
2023/10/17 11:29:26;;;;;;;21.58;14.10;;;6.90;99.90;;;;;;5044424;28;20116;-64
2023/10/17 11:31:54;;;;;;;19.75;13.68;;;6.90;99.90;;;;;;5023588;28;20033;-64
2023/10/17 11:34:32;;;;;;;18.70;12.85;;;6.90;99.90;;;;;;5039051;28;20033;-64
2023/10/17 11:37:03;;;;;;;17.67;13.05;;;7.00;99.90;;;;;;5041611;28;20069;-64
2023/10/17 11:39:42;;;;;;;18.85;12.95;;;7.00;99.90;;;;;;5038748;28;20033;-64
2023/10/17 11:42:33;;;;;;;17.55;12.95;;;7.00;99.90;;;;;;5028874;28;20061;-64
2023/10/17 11:45:00;;;;;;;18.67;13.05;;;7.00;99.90;;;;;;5045421;28;20460;-64
2023/10/17 11:47:36;;;;;;;23.25;15.82;;;7.10;99.90;;;;;;5028921;28;20042;-64
2023/10/17 11:50:08;;;;;;;20.20;13.95;;;7.20;99.90;;;;;;5057358;28;20048;-64
2023/10/17 11:52:40;;;;;;;19.13;13.82;;;7.20;99.90;;;;;;5059991;28;20155;-64
2023/10/17 11:55:12;;;;;;;19.48;14.75;;;7.20;99.90;;;;;;5043001;28;20773;-64
2023/10/17 11:57:50;;;;;;;21.05;15.68;;;7.20;99.90;;;;;;5045645;28;20740;-64
2023/10/17 12:00:28;;;;;;;23.80;16.35;;;7.20;99.90;;;;;;5056411;28;20044;-64
2023/10/17 12:02:55;;;;;;;14.85;9.52;;;7.30;99.90;;;;;;5046370;28;20036;-64
2023/10/17 12:05:27;;;;;;;17.08;11.82;;;7.40;99.90;;;;;;5041028;28;20426;-64
2023/10/17 12:07:54;;;;;;;20.65;13.35;;;7.80;99.90;;;;;;5042400;28;20853;-64
2023/10/17 12:10:22;;;;;;;20.67;13.00;;;8.00;99.90;;;;;;5036672;28;20120;-64
2023/10/17 12:13:01;;;;;;;17.73;11.83;;;8.00;99.90;;;;;;5045700;28;20037;-64
2023/10/17 12:15:28;;;;;;;22.42;12.80;;;8.00;99.90;;;;;;5043064;28;20043;-63
2023/10/17 12:18:00;;;;;;;19.45;13.43;;;8.00;99.90;;;;;;5040767;28;20382;-64
2023/10/17 12:20:32;;;;;;;17.15;12.65;;;8.00;99.90;;;;;;5037972;28;20045;-64
2023/10/17 12:23:00;;;;;;;16.45;12.48;;;8.10;99.90;;;;;;5039639;28;20072;-64
2023/10/17 12:25:32;;;;;;;18.00;12.70;;;8.10;99.90;;;;;;5037412;28;20742;-64
2023/10/17 12:28:02;;;;;;;19.05;14.13;;;8.20;99.90;;;;;;5035275;28;20033;-64
2023/10/17 12:30:37;;;;;;;18.80;13.43;;;8.20;99.90;;;;;;5040949;28;20037;-64
2023/10/17 12:33:09;;;;;;;18.33;11.85;;;8.20;99.90;;;;;;5038432;28;20037;-64
2023/10/17 12:35:46;;;;;;;17.30;12.73;;;8.20;99.90;;;;;;5053318;28;20073;-63
2023/10/17 12:38:25;;;;;;;17.15;12.35;;;8.20;99.90;;;;;;5034535;28;20043;-64
2023/10/17 12:40:58;;;;;;;16.00;11.60;;;8.10;99.90;;;;;;5034990;28;20029;-64
2023/10/17 12:43:30;;;;;;;18.98;13.63;;;8.20;99.90;;;;;;5038099;28;20052;-64
2023/10/17 12:46:03;;;;;;;17.83;13.30;;;8.10;99.90;;;;;;5033880;28;20041;-64
2023/10/17 12:48:35;;;;;;;15.98;12.65;;;8.20;99.90;;;;;;5037854;28;20284;-64
2023/10/17 12:51:11;;;;;;;17.45;12.05;;;8.20;99.90;;;;;;5039759;28;20036;-64
2023/10/17 12:53:44;;;;;;;16.17;11.88;;;8.30;99.90;;;;;;5042256;28;20128;-63
2023/10/17 12:56:17;;;;;;;15.77;11.97;;;8.30;99.90;;;;;;5044223;28;20043;-64
2023/10/17 12:58:50;;;;;;;17.30;12.85;;;8.30;99.90;;;;;;5039676;28;20071;-64
2023/10/17 13:01:25;;;;;;;16.73;12.75;;;8.40;99.90;;;;;;5038692;28;20048;-64
2023/10/17 13:03:59;;;;;;;18.05;13.43;;;8.40;99.90;;;;;;5041921;28;20469;-64
2023/10/17 13:06:26;;;;;;;17.38;12.73;;;8.40;99.90;;;;;;5038758;28;20055;-64
2023/10/17 13:08:57;;;;;;;15.63;11.73;;;8.50;99.90;;;;;;5034942;28;20132;-64
2023/10/17 13:11:28;;;;;;;17.52;12.80;;;8.50;99.90;;;;;;5033093;28;20049;-64
2023/10/17 13:14:00;;;;;;;16.95;12.05;;;8.50;99.90;;;;;;5037348;28;20049;-64
2023/10/17 13:16:27;;;;;;;14.85;11.98;;;8.60;99.90;;;;;;5039211;28;20117;-64
2023/10/17 13:19:06;;;;;;;17.48;12.27;;;8.60;99.90;;;;;;5043225;28;20543;-64
2023/10/17 13:21:37;;;;;;;17.00;12.82;;;8.60;99.90;;;;;;5046656;28;20044;-64
2023/10/17 13:24:05;;;;;;;17.15;13.15;;;8.60;99.90;;;;;;5046550;28;20038;-64
2023/10/17 13:26:37;;;;;;;16.02;12.13;;;8.50;99.90;;;;;;5045458;28;20043;-64
2023/10/17 13:29:09;;;;;;;18.55;13.52;;;8.50;99.90;;;;;;5045048;28;20037;-64
2023/10/17 13:31:37;;;;;;;17.23;12.38;;;8.50;99.90;;;;;;5045575;28;20060;-64
2023/10/17 13:34:08;;;;;;;21.52;16.38;;;8.50;99.90;;;;;;5038686;28;20048;-64
2023/10/17 13:36:40;;;;;;;21.52;14.90;;;8.60;99.90;;;;;;5045162;28;20048;-64
2023/10/17 13:39:13;;;;;;;17.10;13.05;;;8.70;99.90;;;;;;5042522;28;20060;-64
2023/10/17 13:41:46;;;;;;;17.60;13.77;;;8.70;99.90;;;;;;5046890;28;20046;-64
2023/10/17 13:44:12;;;;;;;20.55;13.35;;;8.70;99.90;;;;;;5050118;28;21453;-64
2023/10/17 13:46:44;;;;;;;15.85;12.27;;;8.70;99.90;;;;;;5037963;28;20046;-63
2023/10/17 13:49:11;;;;;;;16.80;13.05;;;8.70;99.90;;;;;;5040862;28;20048;-64
2023/10/17 13:51:46;;;;;;;16.83;12.23;;;8.70;99.90;;;;;;5040358;28;20038;-64
2023/10/17 13:54:18;;;;;;;16.95;12.68;;;8.70;99.90;;;;;;5046438;28;20049;-64
2023/10/17 13:56:45;;;;;;;22.42;16.40;;;8.80;99.90;;;;;;5038304;28;20068;-64
2023/10/17 13:59:19;;;;;;;23.25;16.58;;;8.80;99.90;;;;;;5045004;28;20033;-64
2023/10/17 14:01:46;;;;;;;22.00;15.77;;;8.80;99.90;;;;;;5039369;28;20042;-64
2023/10/17 14:04:18;;;;;;;24.48;14.20;;;8.80;99.90;;;;;;5045185;28;20337;-64
2023/10/17 14:06:51;;;;;;;19.77;15.38;;;8.80;99.90;;;;;;5040108;28;20393;-64
2023/10/17 14:09:23;;;;;;;17.63;13.80;;;8.80;99.90;;;;;;5041433;28;20059;-64
2023/10/17 14:11:56;;;;;;;22.45;15.80;;;8.80;99.90;;;;;;5037232;28;20073;-64
2023/10/17 14:14:30;;;;;;;19.38;15.27;;;8.80;99.90;;;;;;5031713;28;20848;-63
2023/10/17 14:17:03;;;;;;;16.02;11.07;;;8.80;99.90;;;;;;5038293;28;20449;-64
2023/10/17 14:27:23;;;;;;;18.15;12.93;;;9.40;99.90;;;;;;5039121;28;20041;-64
2023/10/17 14:29:50;;;;;;;17.02;12.88;;;9.50;99.90;;;;;;5056134;28;20039;-64
2023/10/17 14:32:23;;;;;;;17.33;12.68;;;9.60;99.90;;;;;;5045268;28;20037;-64
2023/10/17 14:34:56;;;;;;;20.50;13.15;;;9.60;99.90;;;;;;5047100;28;20036;-64
2023/10/17 14:37:30;;;;;;;17.65;12.82;;;9.70;99.90;;;;;;5041768;28;20108;-64
2023/10/17 14:39:57;;;;;;;18.77;14.05;;;9.70;99.90;;;;;;5046493;28;20043;-64
2023/10/17 14:42:29;;;;;;;21.13;15.60;;;9.70;99.90;;;;;;5039695;28;20033;-64
2023/10/17 14:45:01;;;;;;;20.45;14.27;;;9.70;99.90;;;;;;5039644;28;20051;-64
2023/10/17 14:47:35;;;;;;;18.15;12.90;;;9.60;99.90;;;;;;5040114;28;20569;-64
2023/10/17 14:50:09;;;;;;;18.27;13.68;;;9.40;99.90;;;;;;5038596;28;20581;-64
2023/10/17 14:52:35;;;;;;;19.40;14.07;;;9.30;99.90;;;;;;5037435;28;20040;-64
2023/10/17 14:55:14;;;;;;;19.65;13.18;;;9.20;99.90;;;;;;5040844;28;20122;-64
2023/10/17 14:57:46;;;;;;;23.65;14.40;;;9.30;99.90;;;;;;5042999;28;20501;-64
2023/10/17 15:00:17;;;;;;;20.08;13.68;;;9.40;99.90;;;;;;5044197;28;20039;-64
2023/10/17 15:02:50;;;;;;;20.48;14.57;;;9.50;99.90;;;;;;5054256;28;20051;-64
2023/10/17 15:05:24;;;;;;;22.50;15.60;;;9.50;99.90;;;;;;5041246;28;20643;-64
2023/10/17 15:07:56;;;;;;;18.70;14.43;;;9.50;99.90;;;;;;5043379;28;20040;-64
2023/10/17 15:10:27;;;;;;;18.98;14.52;;;9.60;99.90;;;;;;5040827;28;20048;-64
2023/10/17 15:12:59;;;;;;;20.17;16.13;;;9.50;99.90;;;;;;5046835;28;20059;-64
2023/10/17 15:15:31;;;;;;;20.55;15.88;;;9.40;99.90;;;;;;5037120;28;20404;-64
2023/10/17 15:18:06;;;;;;;22.15;15.77;;;9.30;99.90;;;;;;5039326;28;20125;-64
2023/10/17 15:20:38;;;;;;;23.27;15.73;;;9.20;99.90;;;;;;5037253;28;20119;-64
2023/10/17 15:23:10;;;;;;;21.00;15.48;;;9.10;99.90;;;;;;5045433;28;20064;-64
2023/10/17 15:25:42;;;;;;;20.58;14.98;;;8.90;99.90;;;;;;5039894;28;20531;-64
2023/10/17 15:28:13;;;;;;;21.02;15.65;;;8.90;99.90;;;;;;5040009;28;20060;-64
2023/10/17 15:30:45;;;;;;;19.60;13.40;;;8.90;99.90;;;;;;5042617;28;20500;-64
2023/10/17 15:33:19;;;;;;;19.98;13.95;;;9.00;99.90;;;;;;5042122;28;20053;-64
2023/10/17 15:35:52;;;;;;;22.83;14.07;;;9.30;99.90;;;;;;5044309;28;20048;-64
2023/10/17 15:38:25;;;;;;;21.63;14.27;;;9.40;99.90;;;;;;5047546;28;20033;-64